sensor_id;sensor_type;location;lat;lon;timestamp;temperature;humidity
17891;DHT22;9071;48.220;14.480;2023-02-15T00:03:53;0.70;99.90
17891;DHT22;9071;48.220;14.480;2023-02-15T00:08:55;0.70;99.90
17891;DHT22;9071;48.220;14.480;2023-02-15T00:13:57;0.60;99.90
17891;DHT22;9071;48.220;14.480;2023-02-15T00:19:01;0.60;99.90
17891;DHT22;9071;48.220;14.480;2023-02-15T00:24:05;0.70;99.90
17891;DHT22;9071;48.220;14.480;2023-02-15T00:29:08;0.70;99.90
17891;DHT22;9071;48.220;14.480;2023-02-15T00:34:14;0.70;99.90
17891;DHT22;9071;48.220;14.480;2023-02-15T00:39:18;0.70;99.90
17891;DHT22;9071;48.220;14.480;2023-02-15T00:44:20;0.70;99.90
17891;DHT22;9071;48.220;14.480;2023-02-15T00:49:25;0.70;99.90
17891;DHT22;9071;48.220;14.480;2023-02-15T00:54:27;0.70;99.90
17891;DHT22;9071;48.220;14.480;2023-02-15T00:59:29;0.70;99.90
17891;DHT22;9071;48.220;14.480;2023-02-15T01:04:32;0.70;99.90
17891;DHT22;9071;48.220;14.480;2023-02-15T01:09:34;0.70;99.90
17891;DHT22;9071;48.220;14.480;2023-02-15T01:14:36;0.70;99.90
17891;DHT22;9071;48.220;14.480;2023-02-15T01:19:40;0.70;99.90
17891;DHT22;9071;48.220;14.480;2023-02-15T01:24:42;0.70;99.90
17891;DHT22;9071;48.220;14.480;2023-02-15T01:29:44;0.70;99.90
17891;DHT22;9071;48.220;14.480;2023-02-15T01:34:49;0.70;99.90
17891;DHT22;9071;48.220;14.480;2023-02-15T01:39:51;0.70;99.90
17891;DHT22;9071;48.220;14.480;2023-02-15T01:44:55;0.80;99.90
17891;DHT22;9071;48.220;14.480;2023-02-15T01:50:03;0.80;99.90
17891;DHT22;9071;48.220;14.480;2023-02-15T01:55:08;0.80;99.90
17891;DHT22;9071;48.220;14.480;2023-02-15T02:00:11;0.80;99.90
17891;DHT22;9071;48.220;14.480;2023-02-15T02:05:15;0.90;99.90
17891;DHT22;9071;48.220;14.480;2023-02-15T02:10:20;0.90;99.90
17891;DHT22;9071;48.220;14.480;2023-02-15T02:15:26;0.90;99.90
17891;DHT22;9071;48.220;14.480;2023-02-15T02:20:47;0.90;99.90
17891;DHT22;9071;48.220;14.480;2023-02-15T02:32:00;1.00;99.90
17891;DHT22;9071;48.220;14.480;2023-02-15T02:37:16;1.00;99.90
17891;DHT22;9071;48.220;14.480;2023-02-15T02:42:27;1.00;99.90
17891;DHT22;9071;48.220;14.480;2023-02-15T02:47:34;1.00;99.90
17891;DHT22;9071;48.220;14.480;2023-02-15T02:52:41;1.00;99.90
17891;DHT22;9071;48.220;14.480;2023-02-15T02:57:50;1.00;99.90
17891;DHT22;9071;48.220;14.480;2023-02-15T03:02:57;1.10;99.90
17891;DHT22;9071;48.220;14.480;2023-02-15T03:08:02;1.10;99.90
17891;DHT22;9071;48.220;14.480;2023-02-15T03:13:07;1.10;99.90
17891;DHT22;9071;48.220;14.480;2023-02-15T03:18:10;1.10;99.90
17891;DHT22;9071;48.220;14.480;2023-02-15T03:23:16;1.10;99.90
17891;DHT22;9071;48.220;14.480;2023-02-15T03:28:21;1.10;99.90
17891;DHT22;9071;48.220;14.480;2023-02-15T03:33:26;1.10;99.90
17891;DHT22;9071;48.220;14.480;2023-02-15T03:38:35;1.10;99.90
17891;DHT22;9071;48.220;14.480;2023-02-15T03:43:43;1.10;99.90
17891;DHT22;9071;48.220;14.480;2023-02-15T03:48:52;1.10;99.90
17891;DHT22;9071;48.220;14.480;2023-02-15T03:53:57;1.20;99.90
17891;DHT22;9071;48.220;14.480;2023-02-15T03:59:00;1.20;99.90
17891;DHT22;9071;48.220;14.480;2023-02-15T04:04:21;1.20;99.90
17891;DHT22;9071;48.220;14.480;2023-02-15T04:09:25;1.20;99.90
17891;DHT22;9071;48.220;14.480;2023-02-15T04:14:45;1.30;99.90
17891;DHT22;9071;48.220;14.480;2023-02-15T04:20:05;1.30;99.90
17891;DHT22;9071;48.220;14.480;2023-02-15T04:25:26;1.30;99.90
17891;DHT22;9071;48.220;14.480;2023-02-15T04:30:29;1.30;99.90
17891;DHT22;9071;48.220;14.480;2023-02-15T04:35:31;1.30;99.90
17891;DHT22;9071;48.220;14.480;2023-02-15T04:40:35;1.40;99.90
17891;DHT22;9071;48.220;14.480;2023-02-15T04:45:37;1.40;99.90
17891;DHT22;9071;48.220;14.480;2023-02-15T04:50:39;1.40;99.90
17891;DHT22;9071;48.220;14.480;2023-02-15T04:55:43;1.30;99.90
17891;DHT22;9071;48.220;14.480;2023-02-15T05:00:45;1.30;99.90
17891;DHT22;9071;48.220;14.480;2023-02-15T05:05:47;1.30;99.90
17891;DHT22;9071;48.220;14.480;2023-02-15T05:10:50;1.30;99.90
17891;DHT22;9071;48.220;14.480;2023-02-15T05:15:53;1.50;99.90
17891;DHT22;9071;48.220;14.480;2023-02-15T05:20:55;1.50;99.90
17891;DHT22;9071;48.220;14.480;2023-02-15T05:25:58;1.50;99.90
17891;DHT22;9071;48.220;14.480;2023-02-15T05:31:18;1.50;99.90
17891;DHT22;9071;48.220;14.480;2023-02-15T05:36:20;1.60;99.90
17891;DHT22;9071;48.220;14.480;2023-02-15T05:41:24;1.50;99.90
17891;DHT22;9071;48.220;14.480;2023-02-15T05:46:26;1.50;99.90
17891;DHT22;9071;48.220;14.480;2023-02-15T05:51:28;1.40;99.90
17891;DHT22;9071;48.220;14.480;2023-02-15T05:56:32;1.70;99.90
17891;DHT22;9071;48.220;14.480;2023-02-15T06:01:34;2.00;99.90
17891;DHT22;9071;48.220;14.480;2023-02-15T06:06:36;1.90;99.90
17891;DHT22;9071;48.220;14.480;2023-02-15T06:11:40;1.70;99.90
17891;DHT22;9071;48.220;14.480;2023-02-15T06:16:42;1.70;99.90
17891;DHT22;9071;48.220;14.480;2023-02-15T06:21:44;1.50;99.90
17891;DHT22;9071;48.220;14.480;2023-02-15T06:26:47;1.40;99.90
17891;DHT22;9071;48.220;14.480;2023-02-15T06:31:49;1.50;99.90
17891;DHT22;9071;48.220;14.480;2023-02-15T06:36:51;1.40;99.90
17891;DHT22;9071;48.220;14.480;2023-02-15T06:41:55;1.40;99.90
17891;DHT22;9071;48.220;14.480;2023-02-15T06:46:57;1.30;99.90
17891;DHT22;9071;48.220;14.480;2023-02-15T06:51:59;1.30;99.90
17891;DHT22;9071;48.220;14.480;2023-02-15T06:57:03;1.30;99.90
17891;DHT22;9071;48.220;14.480;2023-02-15T07:02:05;1.20;99.90
17891;DHT22;9071;48.220;14.480;2023-02-15T07:07:08;1.20;99.90
17891;DHT22;9071;48.220;14.480;2023-02-15T07:12:12;1.30;99.90
17891;DHT22;9071;48.220;14.480;2023-02-15T07:17:31;1.20;99.90
17891;DHT22;9071;48.220;14.480;2023-02-15T07:22:34;1.30;99.90
17891;DHT22;9071;48.220;14.480;2023-02-15T07:27:38;1.30;99.90
17891;DHT22;9071;48.220;14.480;2023-02-15T07:32:42;1.30;99.90
17891;DHT22;9071;48.220;14.480;2023-02-15T07:37:58;1.40;99.90
17891;DHT22;9071;48.220;14.480;2023-02-15T07:43:01;1.40;99.90
17891;DHT22;9071;48.220;14.480;2023-02-15T07:48:04;1.40;99.90
17891;DHT22;9071;48.220;14.480;2023-02-15T07:53:06;1.50;99.90
17891;DHT22;9071;48.220;14.480;2023-02-15T07:58:10;1.50;99.90
17891;DHT22;9071;48.220;14.480;2023-02-15T08:03:12;1.50;99.90
17891;DHT22;9071;48.220;14.480;2023-02-15T08:08:17;1.40;99.90
17891;DHT22;9071;48.220;14.480;2023-02-15T08:13:32;1.40;99.90
17891;DHT22;9071;48.220;14.480;2023-02-15T08:18:34;1.50;99.90
17891;DHT22;9071;48.220;14.480;2023-02-15T08:23:36;1.50;99.90
17891;DHT22;9071;48.220;14.480;2023-02-15T08:28:40;1.50;99.90
17891;DHT22;9071;48.220;14.480;2023-02-15T08:33:46;1.60;99.90
17891;DHT22;9071;48.220;14.480;2023-02-15T08:38:49;1.70;99.90
17891;DHT22;9071;48.220;14.480;2023-02-15T08:43:54;1.50;99.90
17891;DHT22;9071;48.220;14.480;2023-02-15T08:48:57;1.50;99.90
17891;DHT22;9071;48.220;14.480;2023-02-15T08:54:01;1.50;99.90
17891;DHT22;9071;48.220;14.480;2023-02-15T08:59:05;1.60;99.90
17891;DHT22;9071;48.220;14.480;2023-02-15T09:04:08;1.70;99.90
17891;DHT22;9071;48.220;14.480;2023-02-15T09:09:11;1.80;99.90
17891;DHT22;9071;48.220;14.480;2023-02-15T09:14:16;1.90;99.90
17891;DHT22;9071;48.220;14.480;2023-02-15T09:19:22;1.90;99.90
17891;DHT22;9071;48.220;14.480;2023-02-15T09:24:25;1.90;99.90
17891;DHT22;9071;48.220;14.480;2023-02-15T09:29:28;2.00;99.90
17891;DHT22;9071;48.220;14.480;2023-02-15T09:34:30;2.10;99.90
17891;DHT22;9071;48.220;14.480;2023-02-15T09:39:33;2.00;99.90
17891;DHT22;9071;48.220;14.480;2023-02-15T09:44:54;2.00;99.90
17891;DHT22;9071;48.220;14.480;2023-02-15T09:50:05;2.00;99.90
17891;DHT22;9071;48.220;14.480;2023-02-15T09:55:34;2.00;99.90
17891;DHT22;9071;48.220;14.480;2023-02-15T10:00:48;2.00;99.90
17891;DHT22;9071;48.220;14.480;2023-02-15T10:06:15;2.10;99.90
17891;DHT22;9071;48.220;14.480;2023-02-15T10:11:27;2.10;99.90
17891;DHT22;9071;48.220;14.480;2023-02-15T10:16:48;2.30;99.90
17891;DHT22;9071;48.220;14.480;2023-02-15T10:22:01;2.30;99.90
17891;DHT22;9071;48.220;14.480;2023-02-15T10:27:09;2.20;99.90
17891;DHT22;9071;48.220;14.480;2023-02-15T10:32:22;2.30;99.90
17891;DHT22;9071;48.220;14.480;2023-02-15T10:37:42;2.30;99.90
17891;DHT22;9071;48.220;14.480;2023-02-15T10:48:26;2.60;99.90
17891;DHT22;9071;48.220;14.480;2023-02-15T10:53:49;2.80;99.90
17891;DHT22;9071;48.220;14.480;2023-02-15T10:59:19;3.00;99.90
17891;DHT22;9071;48.220;14.480;2023-02-15T11:04:50;2.90;99.90
17891;DHT22;9071;48.220;14.480;2023-02-15T11:09:59;2.80;99.90
17891;DHT22;9071;48.220;14.480;2023-02-15T11:15:10;2.80;99.90
17891;DHT22;9071;48.220;14.480;2023-02-15T11:20:20;2.90;99.90
17891;DHT22;9071;48.220;14.480;2023-02-15T11:25:29;2.70;99.90
17891;DHT22;9071;48.220;14.480;2023-02-15T11:30:40;2.90;99.90
17891;DHT22;9071;48.220;14.480;2023-02-15T11:35:50;3.00;99.90
17891;DHT22;9071;48.220;14.480;2023-02-15T11:40:57;3.00;99.90
17891;DHT22;9071;48.220;14.480;2023-02-15T11:46:00;3.00;99.90
17891;DHT22;9071;48.220;14.480;2023-02-15T11:51:04;2.90;99.90
17891;DHT22;9071;48.220;14.480;2023-02-15T11:56:13;2.90;99.90
17891;DHT22;9071;48.220;14.480;2023-02-15T12:01:19;3.00;99.90
17891;DHT22;9071;48.220;14.480;2023-02-15T12:06:27;3.10;99.90
17891;DHT22;9071;48.220;14.480;2023-02-15T12:11:35;3.20;99.90
17891;DHT22;9071;48.220;14.480;2023-02-15T12:16:42;3.10;99.90
17891;DHT22;9071;48.220;14.480;2023-02-15T12:21:50;3.10;99.90
17891;DHT22;9071;48.220;14.480;2023-02-15T12:26:57;3.10;99.90
17891;DHT22;9071;48.220;14.480;2023-02-15T12:32:01;2.90;99.90
17891;DHT22;9071;48.220;14.480;2023-02-15T12:37:14;2.90;99.90
17891;DHT22;9071;48.220;14.480;2023-02-15T12:42:17;3.00;99.90
17891;DHT22;9071;48.220;14.480;2023-02-15T12:47:20;3.20;99.90
17891;DHT22;9071;48.220;14.480;2023-02-15T12:52:25;3.20;99.90
17891;DHT22;9071;48.220;14.480;2023-02-15T12:57:29;3.20;99.90
17891;DHT22;9071;48.220;14.480;2023-02-15T13:02:36;3.10;99.90
17891;DHT22;9071;48.220;14.480;2023-02-15T13:07:48;3.00;99.90
17891;DHT22;9071;48.220;14.480;2023-02-15T13:12:51;2.90;99.90
17891;DHT22;9071;48.220;14.480;2023-02-15T13:17:55;2.80;99.90
17891;DHT22;9071;48.220;14.480;2023-02-15T13:23:04;3.00;99.90
17891;DHT22;9071;48.220;14.480;2023-02-15T13:28:12;3.00;99.90
17891;DHT22;9071;48.220;14.480;2023-02-15T13:33:21;2.90;99.90
17891;DHT22;9071;48.220;14.480;2023-02-15T13:38:44;3.00;99.90
17891;DHT22;9071;48.220;14.480;2023-02-15T13:43:52;3.00;99.90
17891;DHT22;9071;48.220;14.480;2023-02-15T13:49:09;3.00;99.90
17891;DHT22;9071;48.220;14.480;2023-02-15T13:54:40;2.90;99.90
17891;DHT22;9071;48.220;14.480;2023-02-15T13:59:58;2.60;99.90
17891;DHT22;9071;48.220;14.480;2023-02-15T14:05:32;2.60;99.90
17891;DHT22;9071;48.220;14.480;2023-02-15T14:10:44;2.60;99.90
17891;DHT22;9071;48.220;14.480;2023-02-15T14:15:52;2.60;99.90
17891;DHT22;9071;48.220;14.480;2023-02-15T14:21:04;2.50;99.90
17891;DHT22;9071;48.220;14.480;2023-02-15T14:26:15;2.60;99.90
17891;DHT22;9071;48.220;14.480;2023-02-15T14:31:28;2.60;99.90
17891;DHT22;9071;48.220;14.480;2023-02-15T14:36:31;2.50;99.90
17891;DHT22;9071;48.220;14.480;2023-02-15T14:41:42;2.40;99.90
17891;DHT22;9071;48.220;14.480;2023-02-15T14:46:52;2.40;99.90
17891;DHT22;9071;48.220;14.480;2023-02-15T14:52:02;2.50;99.90
17891;DHT22;9071;48.220;14.480;2023-02-15T14:57:27;2.50;99.90
17891;DHT22;9071;48.220;14.480;2023-02-15T15:02:42;2.50;99.90
17891;DHT22;9071;48.220;14.480;2023-02-15T15:07:47;2.50;99.90
17891;DHT22;9071;48.220;14.480;2023-02-15T15:12:52;2.50;99.90
17891;DHT22;9071;48.220;14.480;2023-02-15T15:17:59;2.50;99.90
17891;DHT22;9071;48.220;14.480;2023-02-15T15:23:40;2.50;99.90
17891;DHT22;9071;48.220;14.480;2023-02-15T15:28:58;2.40;99.90
17891;DHT22;9071;48.220;14.480;2023-02-15T15:34:19;2.40;99.90
17891;DHT22;9071;48.220;14.480;2023-02-15T15:50:42;2.30;99.90
17891;DHT22;9071;48.220;14.480;2023-02-15T15:55:46;2.30;99.90
17891;DHT22;9071;48.220;14.480;2023-02-15T16:00:52;2.30;99.90
17891;DHT22;9071;48.220;14.480;2023-02-15T16:05:55;2.20;99.90
17891;DHT22;9071;48.220;14.480;2023-02-15T16:11:09;2.10;99.90
17891;DHT22;9071;48.220;14.480;2023-02-15T16:16:20;1.80;99.90
17891;DHT22;9071;48.220;14.480;2023-02-15T16:21:28;1.70;99.90
17891;DHT22;9071;48.220;14.480;2023-02-15T16:27:01;1.70;99.90
17891;DHT22;9071;48.220;14.480;2023-02-15T16:32:20;1.70;99.90
17891;DHT22;9071;48.220;14.480;2023-02-15T16:37:24;1.70;99.90
17891;DHT22;9071;48.220;14.480;2023-02-15T16:42:27;1.60;99.90
17891;DHT22;9071;48.220;14.480;2023-02-15T16:47:35;1.40;99.90
17891;DHT22;9071;48.220;14.480;2023-02-15T16:52:37;1.40;99.90
17891;DHT22;9071;48.220;14.480;2023-02-15T16:57:43;1.30;99.90
17891;DHT22;9071;48.220;14.480;2023-02-15T17:02:55;1.30;99.90
17891;DHT22;9071;48.220;14.480;2023-02-15T17:08:14;1.30;99.90
17891;DHT22;9071;48.220;14.480;2023-02-15T17:13:17;1.40;99.90
17891;DHT22;9071;48.220;14.480;2023-02-15T17:18:22;1.40;99.90
17891;DHT22;9071;48.220;14.480;2023-02-15T17:23:28;1.50;99.90
17891;DHT22;9071;48.220;14.480;2023-02-15T17:28:32;1.50;99.90
17891;DHT22;9071;48.220;14.480;2023-02-15T17:33:38;1.50;99.90
17891;DHT22;9071;48.220;14.480;2023-02-15T17:39:00;1.50;99.90
17891;DHT22;9071;48.220;14.480;2023-02-15T17:44:03;1.40;99.90
17891;DHT22;9071;48.220;14.480;2023-02-15T17:49:11;1.40;99.90
17891;DHT22;9071;48.220;14.480;2023-02-15T17:54:17;1.50;99.90
17891;DHT22;9071;48.220;14.480;2023-02-15T17:59:37;1.40;99.90
17891;DHT22;9071;48.220;14.480;2023-02-15T18:04:57;1.40;99.90
17891;DHT22;9071;48.220;14.480;2023-02-15T18:10:18;1.30;99.90
17891;DHT22;9071;48.220;14.480;2023-02-15T18:15:37;1.20;99.90
17891;DHT22;9071;48.220;14.480;2023-02-15T18:20:41;1.10;99.90
17891;DHT22;9071;48.220;14.480;2023-02-15T18:25:44;1.10;99.90
17891;DHT22;9071;48.220;14.480;2023-02-15T18:30:46;1.10;99.90
17891;DHT22;9071;48.220;14.480;2023-02-15T18:35:49;1.10;99.90
17891;DHT22;9071;48.220;14.480;2023-02-15T18:40:52;1.10;99.90
17891;DHT22;9071;48.220;14.480;2023-02-15T18:45:54;1.10;99.90
17891;DHT22;9071;48.220;14.480;2023-02-15T18:50:57;1.20;99.90
17891;DHT22;9071;48.220;14.480;2023-02-15T18:55:59;1.10;99.90
17891;DHT22;9071;48.220;14.480;2023-02-15T19:01:01;1.10;99.90
17891;DHT22;9071;48.220;14.480;2023-02-15T19:06:09;1.10;99.90
17891;DHT22;9071;48.220;14.480;2023-02-15T19:11:16;1.10;99.90
17891;DHT22;9071;48.220;14.480;2023-02-15T19:16:27;1.10;99.90
17891;DHT22;9071;48.220;14.480;2023-02-15T19:21:31;1.10;99.90
17891;DHT22;9071;48.220;14.480;2023-02-15T19:26:37;1.10;99.90
17891;DHT22;9071;48.220;14.480;2023-02-15T19:31:41;1.20;99.90
17891;DHT22;9071;48.220;14.480;2023-02-15T19:36:46;1.20;99.90
17891;DHT22;9071;48.220;14.480;2023-02-15T19:41:49;1.20;99.90
17891;DHT22;9071;48.220;14.480;2023-02-15T19:46:52;1.20;99.90
17891;DHT22;9071;48.220;14.480;2023-02-15T19:51:55;1.20;99.90
17891;DHT22;9071;48.220;14.480;2023-02-15T19:56:57;1.20;99.90
17891;DHT22;9071;48.220;14.480;2023-02-15T20:01:59;1.20;99.90
17891;DHT22;9071;48.220;14.480;2023-02-15T20:07:06;1.20;99.90
17891;DHT22;9071;48.220;14.480;2023-02-15T20:12:20;1.20;99.90
17891;DHT22;9071;48.220;14.480;2023-02-15T20:17:22;1.30;99.90
17891;DHT22;9071;48.220;14.480;2023-02-15T20:22:26;1.20;99.90
17891;DHT22;9071;48.220;14.480;2023-02-15T20:27:28;1.20;99.90
17891;DHT22;9071;48.220;14.480;2023-02-15T20:32:30;1.30;99.90
17891;DHT22;9071;48.220;14.480;2023-02-15T20:37:34;1.20;99.90
17891;DHT22;9071;48.220;14.480;2023-02-15T20:42:36;1.20;99.90
17891;DHT22;9071;48.220;14.480;2023-02-15T20:47:38;1.20;99.90
17891;DHT22;9071;48.220;14.480;2023-02-15T20:52:45;1.20;99.90
17891;DHT22;9071;48.220;14.480;2023-02-15T20:57:47;1.20;99.90
17891;DHT22;9071;48.220;14.480;2023-02-15T21:02:51;1.20;99.90
17891;DHT22;9071;48.220;14.480;2023-02-15T21:07:57;1.20;99.90
17891;DHT22;9071;48.220;14.480;2023-02-15T21:12:59;1.20;99.90
17891;DHT22;9071;48.220;14.480;2023-02-15T21:18:04;1.10;99.90
17891;DHT22;9071;48.220;14.480;2023-02-15T21:23:10;1.10;99.90
17891;DHT22;9071;48.220;14.480;2023-02-15T21:28:17;1.10;99.90
17891;DHT22;9071;48.220;14.480;2023-02-15T21:33:20;1.10;99.90
17891;DHT22;9071;48.220;14.480;2023-02-15T21:38:24;1.10;99.90
17891;DHT22;9071;48.220;14.480;2023-02-15T21:43:30;1.00;99.90
17891;DHT22;9071;48.220;14.480;2023-02-15T21:48:49;1.00;99.90
17891;DHT22;9071;48.220;14.480;2023-02-15T21:53:52;1.00;99.90
17891;DHT22;9071;48.220;14.480;2023-02-15T21:58:54;1.00;99.90
17891;DHT22;9071;48.220;14.480;2023-02-15T22:03:57;0.90;99.90
17891;DHT22;9071;48.220;14.480;2023-02-15T22:09:01;0.90;99.90
17891;DHT22;9071;48.220;14.480;2023-02-15T22:14:03;0.90;99.90
17891;DHT22;9071;48.220;14.480;2023-02-15T22:19:09;0.90;99.90
17891;DHT22;9071;48.220;14.480;2023-02-15T22:24:13;0.80;99.90
17891;DHT22;9071;48.220;14.480;2023-02-15T22:29:16;0.80;99.90
17891;DHT22;9071;48.220;14.480;2023-02-15T22:34:24;0.90;99.90
17891;DHT22;9071;48.220;14.480;2023-02-15T22:39:28;0.80;99.90
17891;DHT22;9071;48.220;14.480;2023-02-15T22:44:32;0.80;99.90
17891;DHT22;9071;48.220;14.480;2023-02-15T22:49:34;0.80;99.90
17891;DHT22;9071;48.220;14.480;2023-02-15T22:54:38;0.80;99.90
17891;DHT22;9071;48.220;14.480;2023-02-15T22:59:40;0.80;99.90
17891;DHT22;9071;48.220;14.480;2023-02-15T23:04:43;0.80;99.90
17891;DHT22;9071;48.220;14.480;2023-02-15T23:09:47;0.80;99.90
17891;DHT22;9071;48.220;14.480;2023-02-15T23:14:50;0.80;99.90
17891;DHT22;9071;48.220;14.480;2023-02-15T23:19:53;0.80;99.90
17891;DHT22;9071;48.220;14.480;2023-02-15T23:24:56;0.80;99.90
17891;DHT22;9071;48.220;14.480;2023-02-15T23:29:58;0.80;99.90
17891;DHT22;9071;48.220;14.480;2023-02-15T23:35:00;0.80;99.90
17891;DHT22;9071;48.220;14.480;2023-02-15T23:40:05;0.80;99.90
17891;DHT22;9071;48.220;14.480;2023-02-15T23:45:25;0.70;99.90
17891;DHT22;9071;48.220;14.480;2023-02-15T23:50:28;0.80;99.90
17891;DHT22;9071;48.220;14.480;2023-02-15T23:55:35;0.70;99.90
